Time;durP1;ratioP1;P1;durP2;ratioP2;P2;SDS_P1;SDS_P2;PMS_P1;PMS_P2;Temp;Humidity;BMP_temperature;BMP_pressure;BME280_temperature;BME280_humidity;BME280_pressure;Samples;Min_cycle;Max_cycle;Signal;HPM_P1;HPM_P2
2022/10/17 00:01:05;;;;;;;50.20;23.42;;;;;;;16.55;92.91;101931.44;5071916;28;20045;-77
2022/10/17 00:03:34;;;;;;;52.20;23.48;;;;;;;16.60;92.43;101931.41;5072014;28;20049;-76
2022/10/17 00:06:20;;;;;;;53.08;24.05;;;;;;;16.52;92.03;101934.75;5071882;28;20060;-77
2022/10/17 00:08:48;;;;;;;47.97;23.77;;;;;;;16.46;92.90;101936.75;5072005;28;20059;-76
2022/10/17 00:11:19;;;;;;;49.75;23.73;;;;;;;16.47;93.02;101937.59;5071916;28;20052;-77
2022/10/17 00:13:50;;;;;;;52.25;24.70;;;;;;;16.44;93.06;101941.75;5071219;28;20044;-77
2022/10/17 00:16:31;;;;;;;51.38;24.55;;;;;;;16.41;93.56;101933.22;5071537;28;20044;-77
2022/10/17 00:18:59;;;;;;;49.47;23.77;;;;;;;16.41;93.52;101934.00;5072172;28;20048;-76
2022/10/17 00:21:27;;;;;;;59.58;25.17;;;;;;;16.37;93.22;101941.22;5070439;28;20411;-76
2022/10/17 00:24:00;;;;;;;48.83;22.75;;;;;;;16.44;93.52;101946.44;5071740;28;20057;-76
2022/10/17 00:26:28;;;;;;;54.05;24.40;;;;;;;16.43;93.59;101948.34;5071858;28;20048;-76
2022/10/17 00:28:59;;;;;;;49.50;23.52;;;;;;;16.48;93.57;101945.56;5071894;28;20049;-77
2022/10/17 00:31:27;;;;;;;54.72;24.58;;;;;;;16.46;93.64;101949.72;5070649;28;20063;-77
2022/10/17 00:33:55;;;;;;;52.95;24.02;;;;;;;16.43;93.52;101948.34;5071719;28;20047;-76
2022/10/17 00:36:25;;;;;;;45.92;21.77;;;;;;;16.45;93.38;101946.16;5070097;28;20053;-77
2022/10/17 00:38:56;;;;;;;51.67;23.25;;;;;;;16.38;93.02;101943.69;5071866;28;20048;-77
2022/10/17 00:41:31;;;;;;;51.58;23.08;;;;;;;16.34;93.77;101961.97;5071717;28;20052;-77
2022/10/17 00:44:03;;;;;;;52.65;23.08;;;;;;;16.30;94.09;101949.84;5056321;28;20048;-77
2022/10/17 00:46:34;;;;;;;;;;;;;;;16.33;94.27;101956.72;5071009;28;20499;-77
2022/10/17 00:49:08;;;;;;;50.35;22.42;;;;;;;16.33;94.52;101957.53;5071862;28;20418;-77
2022/10/17 00:51:45;;;;;;;54.22;24.60;;;;;;;16.32;94.46;101958.66;5071898;28;20503;-77
2022/10/17 00:54:16;;;;;;;55.70;25.02;;;;;;;16.33;94.58;101960.31;5070385;28;20067;-76
2022/10/17 00:56:46;;;;;;;56.85;25.05;;;;;;;16.29;94.94;101953.72;5070326;28;20056;-76
2022/10/17 00:59:16;;;;;;;54.20;24.52;;;;;;;16.29;94.84;101958.41;5070079;28;20053;-77
2022/10/17 01:01:55;;;;;;;52.53;25.33;;;;;;;16.35;94.69;101955.34;5071827;28;20522;-76
2022/10/17 01:04:23;;;;;;;57.80;25.85;;;;;;;16.33;94.06;101957.53;5074329;28;20045;-76
2022/10/17 01:06:52;;;;;;;47.28;23.77;;;;;;;16.29;94.58;101958.41;5075159;28;20047;-77
2022/10/17 01:09:20;;;;;;;51.75;24.10;;;;;;;16.26;94.57;101948.75;5073993;28;20053;-76
2022/10/17 01:12:18;;;;;;;56.08;26.63;;;;;;;16.28;94.85;101951.22;5057198;28;20040;-76
2022/10/17 01:15:18;;;;;;;49.95;23.60;;;;;;;16.31;94.26;101957.00;5074051;28;20072;-76
2022/10/17 01:18:24;;;;;;;54.28;23.60;;;;;;;16.29;94.20;101942.66;5073951;28;20041;-77
2022/10/17 01:20:59;;;;;;;51.15;24.58;;;;;;;16.19;95.18;101953.78;5073477;28;20041;-77
2022/10/17 01:23:55;;;;;;;51.60;22.42;;;;;;;16.19;94.55;101948.25;5074805;28;20044;-77
2022/10/17 01:26:37;;;;;;;51.45;23.48;;;;;;;16.21;94.97;101952.38;5073544;28;20052;-76
2022/10/17 01:29:26;;;;;;;53.75;24.48;;;;;;;16.20;94.58;101952.66;5073755;28;20041;-77
2022/10/17 01:32:02;;;;;;;52.40;24.48;;;;;;;16.19;94.83;101945.50;5073005;28;20376;-76
2022/10/17 01:35:00;;;;;;;52.97;23.73;;;;;;;16.22;94.56;101945.75;5073412;28;20403;-77
2022/10/17 01:37:39;;;;;;;59.17;24.50;;;;;;;16.12;95.27;101945.78;5074010;28;20426;-77
2022/10/17 01:40:29;;;;;;;56.53;23.92;;;;;;;16.16;94.88;101937.75;5074352;28;20052;-76
2022/10/17 01:43:03;;;;;;;46.08;23.83;;;;;;;16.21;94.79;101944.09;5074418;28;20061;-76
2022/10/17 01:45:57;;;;;;;49.75;22.48;;;;;;;16.16;94.03;101940.50;5073326;28;20522;-76
2022/10/17 01:48:36;;;;;;;52.08;23.42;;;;;;;16.16;94.60;101941.34;5073560;28;20044;-76
2022/10/17 01:51:32;;;;;;;53.45;24.50;;;;;;;16.12;94.42;101946.63;5072749;28;20051;-76
2022/10/17 01:54:26;;;;;;;53.40;23.90;;;;;;;16.06;94.91;101939.47;5059917;28;20044;-76
2022/10/17 01:56:58;;;;;;;51.70;23.27;;;;;;;16.06;95.42;101933.97;5052001;28;20044;-77
2022/10/17 01:59:40;;;;;;;55.90;24.38;;;;;;;16.11;95.56;101933.94;5072669;28;20060;-76
2022/10/17 02:02:10;;;;;;;51.53;24.73;;;;;;;16.06;96.12;101927.59;5106186;28;20407;-77
2022/10/17 02:04:40;;;;;;;54.85;25.15;;;;;;;16.05;95.75;101932.31;5072266;28;20518;-76
2022/10/17 02:07:09;;;;;;;56.42;24.17;;;;;;;16.07;96.34;101938.38;5074329;28;20486;-77
2022/10/17 02:09:38;;;;;;;54.22;24.92;;;;;;;16.03;95.86;101929.00;5072261;28;20053;-77
2022/10/17 02:12:43;;;;;;;55.90;24.13;;;;;;;16.02;95.95;101924.59;5073124;28;20045;-77
2022/10/17 02:15:30;;;;;;;52.25;23.98;;;;;;;16.04;96.03;101921.53;5073966;28;20395;-77
2022/10/17 02:18:20;;;;;;;51.95;23.75;;;;;;;16.08;95.83;101930.91;5072436;28;20063;-77
2022/10/17 02:21:20;;;;;;;48.85;22.60;;;;;;;16.06;95.30;101928.44;5072455;28;20044;-76
2022/10/17 02:24:19;;;;;;;52.65;24.45;;;;;;;16.04;95.71;101925.13;5059555;28;20053;-76
2022/10/17 02:27:12;;;;;;;51.30;22.50;;;;;;;16.01;96.29;101913.81;5073831;28;20032;-76
2022/10/17 02:29:57;;;;;;;51.55;25.17;;;;;;;15.97;96.32;101919.09;5066546;28;20044;-77
2022/10/17 02:32:45;;;;;;;56.47;24.75;;;;;;;16.00;96.12;101918.53;5072409;28;20056;-77
2022/10/17 02:35:24;;;;;;;54.58;23.67;;;;;;;15.99;96.02;101911.34;5073684;28;20051;-77
2022/10/17 02:37:53;;;;;;;50.47;23.88;;;;;;;16.00;96.08;101913.00;5072620;28;20039;-76
2022/10/17 02:40:23;;;;;;;50.78;22.70;;;;;;;15.99;95.95;101917.69;5073884;28;20044;-76
2022/10/17 02:42:54;;;;;;;51.67;24.35;;;;;;;16.00;96.04;101913.00;5071937;28;20048;-77
2022/10/17 02:45:24;;;;;;;53.78;24.38;;;;;;;16.03;96.03;101915.19;5073574;28;20052;-77
2022/10/17 02:48:04;;;;;;;49.30;23.60;;;;;;;16.03;95.85;101923.47;5071897;28;20048;-77
2022/10/17 02:50:55;;;;;;;54.13;24.80;;;;;;;15.99;95.31;101919.66;5072202;28;20052;-76
2022/10/17 02:53:43;;;;;;;48.75;24.15;;;;;;;15.90;95.24;101916.63;5072305;28;20053;-76
2022/10/17 02:56:18;;;;;;;55.40;23.92;;;;;;;15.90;95.68;101915.78;5071583;28;20045;-77
2022/10/17 02:58:54;;;;;;;54.53;24.20;;;;;;;15.84;96.16;101932.38;5072103;28;20053;-77
2022/10/17 03:01:23;;;;;;;55.67;24.15;;;;;;;15.81;96.36;101930.19;5057890;28;20791;-77
2022/10/17 03:04:07;;;;;;;58.00;25.67;;;;;;;15.85;95.89;101938.72;5070905;28;20048;-76
2022/10/17 03:06:35;;;;;;;57.90;24.92;;;;;;;15.84;95.58;101943.41;5072884;28;20515;-77
2022/10/17 03:09:03;;;;;;;55.83;24.65;;;;;;;15.84;96.00;101946.16;5071830;28;20053;-76
2022/10/17 03:11:34;;;;;;;55.65;24.40;;;;;;;15.87;96.11;101946.72;5071588;28;20045;-77
2022/10/17 03:14:02;;;;;;;52.78;24.80;;;;;;;15.86;95.08;101945.88;5071659;28;20052;-77
2022/10/17 03:16:30;;;;;;;56.90;24.67;;;;;;;15.79;95.69;101948.94;5072849;28;20044;-77
2022/10/17 03:18:57;;;;;;;55.22;25.10;;;;;;;15.83;95.70;101941.75;5071235;28;20430;-77
2022/10/17 03:21:27;;;;;;;58.10;23.63;;;;;;;15.79;96.07;101948.94;5071487;28;20525;-76
2022/10/17 03:23:58;;;;;;;56.75;24.15;;;;;;;15.80;95.78;101949.78;5072605;28;20053;-76
2022/10/17 03:26:28;;;;;;;61.30;24.35;;;;;;;15.84;95.04;101946.16;5070223;28;20049;-77
2022/10/17 03:28:57;;;;;;;51.70;24.52;;;;;;;15.82;95.08;101944.78;5053932;28;20049;-77
2022/10/17 03:31:28;;;;;;;52.83;23.88;;;;;;;15.81;94.57;101954.19;5051418;28;20487;-77
2022/10/17 03:33:57;;;;;;;45.67;21.88;;;;;;;15.79;95.02;101957.22;5034968;28;20053;-77
2022/10/17 03:36:25;;;;;;;51.28;23.08;;;;;;;15.78;94.99;101952.00;5061056;28;20040;-76
2022/10/17 03:38:53;;;;;;;48.58;22.55;;;;;;;15.76;95.37;101955.03;5071210;28;20486;-77
2022/10/17 03:41:25;;;;;;;49.97;24.17;;;;;;;15.75;95.44;101961.66;5070823;28;20487;-76
2022/10/17 03:43:53;;;;;;;50.10;22.90;;;;;;;15.78;95.06;101965.81;5071046;28;20491;-76
2022/10/17 03:46:23;;;;;;;52.20;25.17;;;;;;;15.78;94.95;101965.81;5070835;28;20048;-77
2022/10/17 03:48:51;;;;;;;49.08;23.05;;;;;;;15.74;94.90;101971.03;5070710;28;20048;-77
2022/10/17 03:51:19;;;;;;;52.90;22.98;;;;;;;15.74;94.88;101971.03;5070943;28;20497;-77
2022/10/17 03:53:51;;;;;;;59.65;24.15;;;;;;;15.72;95.24;101976.84;5058517;28;20053;-77
2022/10/17 03:56:24;;;;;;;47.88;22.52;;;;;;;15.74;94.59;101971.03;5069366;28;20048;-77
2022/10/17 03:58:58;;;;;;;50.35;22.13;;;;;;;15.72;95.14;101970.50;5070861;28;20494;-77
2022/10/17 04:01:27;;;;;;;60.15;24.50;;;;;;;15.71;95.36;101977.13;5059379;28;20041;-77
2022/10/17 04:03:56;;;;;;;52.40;23.17;;;;;;;15.67;95.27;101976.03;5061996;28;20503;-77
2022/10/17 04:06:28;;;;;;;52.63;24.42;;;;;;;15.67;95.69;101976.88;5052880;28;20048;-77
2022/10/17 04:08:56;;;;;;;59.25;24.50;;;;;;;15.70;95.60;101975.47;5060601;28;20045;-77
2022/10/17 04:11:30;;;;;;;60.17;24.00;;;;;;;15.78;95.35;101974.09;5055455;28;20391;-77
2022/10/17 04:14:00;;;;;;;56.00;23.95;;;;;;;15.74;95.67;101976.56;5059911;28;20051;-77
2022/10/17 04:16:29;;;;;;;51.58;23.08;;;;;;;15.72;95.19;101984.28;5049241;28;20045;-77
2022/10/17 04:19:01;;;;;;;49.53;22.20;;;;;;;15.72;95.06;101990.66;5050642;28;20055;-77
2022/10/17 04:21:35;;;;;;;46.20;22.88;;;;;;;15.77;94.78;101988.97;5050760;28;20045;-77
2022/10/17 04:24:09;;;;;;;45.05;21.65;;;;;;;15.78;94.65;101985.13;5051700;28;20064;-78
2022/10/17 04:27:00;;;;;;;48.22;23.13;;;;;;;15.78;94.34;101988.69;5051644;28;20045;-78
2022/10/17 04:29:30;;;;;;;48.50;22.58;;;;;;;15.72;94.69;101995.34;5050576;28;20049;-78
2022/10/17 04:32:16;;;;;;;46.65;21.85;;;;;;;15.76;94.46;101996.44;5050090;28;20048;-78
2022/10/17 04:34:50;;;;;;;;;;;;;;;15.77;94.33;102006.38;5051367;28;20389;-78
2022/10/17 04:37:23;;;;;;;52.30;24.13;;;;;;;15.72;94.76;101998.94;5100178;28;19920;-78
2022/10/17 04:39:53;;;;;;;47.50;21.58;;;;;;;15.71;94.52;102004.72;5074524;28;20407;-78
2022/10/17 04:42:21;;;;;;;57.75;23.80;;;;;;;15.68;94.32;102010.78;5060014;28;20049;-78
2022/10/17 04:44:53;;;;;;;51.13;22.58;;;;;;;15.69;94.45;102012.47;5076096;28;20048;-78
2022/10/17 04:47:23;;;;;;;47.45;22.60;;;;;;;15.61;94.75;102011.09;5074386;28;20492;-78
2022/10/17 04:49:54;;;;;;;48.40;22.45;;;;;;;15.62;95.59;102025.72;5074463;28;20049;-86
2022/10/17 04:52:26;;;;;;;52.78;22.38;;;;;;;16.24;93.12;102018.09;5042055;28;20068;-84
2022/10/17 04:54:54;;;;;;;48.75;23.73;;;;;;;16.78;90.00;102014.75;5057917;28;20182;-83
2022/10/17 04:57:23;;;;;;;47.97;21.65;;;;;;;17.27;86.47;102014.94;5058510;28;20406;-83
2022/10/17 04:59:59;;;;;;;47.60;20.17;;;;;;;17.60;83.87;102023.50;5057599;28;20059;-83
2022/10/17 05:02:59;;;;;;;50.72;21.88;;;;;;;17.84;81.58;102028.22;5056111;28;20041;-83
2022/10/17 05:05:29;;;;;;;44.00;21.00;;;;;;;18.01;80.75;102027.72;5069231;28;20403;-82
2022/10/17 05:07:57;;;;;;;42.13;20.13;;;;;;;18.13;79.77;102030.94;5070316;28;20492;-83
2022/10/17 05:10:30;;;;;;;44.25;20.88;;;;;;;18.27;78.93;102033.81;5057638;28;20110;-83
2022/10/17 05:12:58;;;;;;;43.30;20.55;;;;;;;18.27;78.55;102036.59;5041218;28;20564;-82
2022/10/17 05:15:30;;;;;;;46.83;22.50;;;;;;;18.27;78.36;102033.81;5074714;28;20510;-83
2022/10/17 05:17:58;;;;;;;45.35;22.70;;;;;;;18.31;78.42;102033.19;5057418;28;20044;-83
2022/10/17 05:20:28;;;;;;;46.30;22.08;;;;;;;18.28;77.88;102031.84;5034981;28;20051;-82
2022/10/17 05:22:58;;;;;;;42.95;21.30;;;;;;;17.84;79.65;102033.75;5073678;28;20076;-83
2022/10/17 05:25:31;;;;;;;45.13;21.40;;;;;;;17.25;82.81;102034.59;5060872;28;20475;-84
2022/10/17 05:27:59;;;;;;;49.83;21.58;;;;;;;16.90;84.95;102029.03;5056899;28;20056;-83
2022/10/17 05:30:27;;;;;;;42.65;21.85;;;;;;;16.65;86.35;102036.41;5057153;28;20049;-84
2022/10/17 05:33:01;;;;;;;41.35;20.20;;;;;;;16.75;86.37;102037.41;5057182;28;20063;-83
2022/10/17 05:35:31;;;;;;;44.17;20.67;;;;;;;16.90;85.59;102042.03;5051675;28;20488;-83
2022/10/17 05:38:00;;;;;;;48.20;22.65;;;;;;;16.91;85.43;102050.03;5035069;28;20059;-83
2022/10/17 05:40:30;;;;;;;44.72;20.20;;;;;;;16.70;86.48;102046.59;5057007;28;20049;-83
2022/10/17 05:42:58;;;;;;;46.25;20.25;;;;;;;16.49;87.25;102048.63;5047140;28;20056;-84
2022/10/17 05:45:27;;;;;;;48.05;21.63;;;;;;;16.52;87.00;102035.06;5057211;28;20048;-75
2022/10/17 05:47:56;;;;;;;46.63;21.30;;;;;;;16.44;87.59;102049.50;5059551;28;20519;-75
2022/10/17 05:50:24;;;;;;;42.35;22.55;;;;;;;16.22;88.75;102053.44;5055595;28;20048;-75
2022/10/17 05:53:04;;;;;;;48.15;21.88;;;;;;;16.04;89.85;102054.06;5073093;28;20395;-75
2022/10/17 05:55:38;;;;;;;;;;;;;;;15.87;90.92;102062.66;5074971;28;20063;-75
2022/10/17 05:58:06;;;;;;;50.95;23.67;;;;;;;15.80;91.25;102077.56;5089825;28;19924;-76
2022/10/17 06:00:39;;;;;;;49.22;22.42;;;;;;;15.68;92.18;102082.53;5072861;28;20044;-75
2022/10/17 06:03:10;;;;;;;48.33;21.70;;;;;;;15.76;92.46;102089.44;5055794;28;20061;-75
2022/10/17 06:05:38;;;;;;;48.25;21.77;;;;;;;15.85;92.81;102085.81;5056032;28;20040;-75
2022/10/17 06:08:06;;;;;;;47.10;23.35;;;;;;;15.87;93.18;102096.59;5055821;28;20285;-75
2022/10/17 06:10:37;;;;;;;52.00;24.50;;;;;;;15.97;92.56;102093.00;5072816;28;20047;-76
2022/10/17 06:13:05;;;;;;;49.25;21.83;;;;;;;16.07;91.61;102095.75;5071441;28;20051;-75
2022/10/17 06:15:35;;;;;;;54.85;24.23;;;;;;;16.09;90.87;102099.06;5072591;28;20036;-75
2022/10/17 06:18:06;;;;;;;48.30;22.10;;;;;;;16.10;91.10;102106.25;5072552;28;20044;-75
2022/10/17 06:20:34;;;;;;;52.85;22.48;;;;;;;16.17;90.81;102102.38;5072183;28;20051;-76
2022/10/17 06:23:03;;;;;;;55.45;24.75;;;;;;;16.18;90.76;102110.34;5072411;28;20055;-75
2022/10/17 06:25:57;;;;;;;48.95;22.50;;;;;;;16.32;90.18;102112.53;5070623;28;20045;-75
2022/10/17 06:28:25;;;;;;;47.05;21.63;;;;;;;16.33;89.83;102115.00;5071784;28;20045;-75
2022/10/17 06:30:54;;;;;;;44.20;22.95;;;;;;;16.50;89.09;102114.69;5071964;28;20051;-75
2022/10/17 06:33:22;;;;;;;49.08;21.95;;;;;;;16.65;88.38;102119.31;5071570;28;20056;-75
2022/10/17 06:35:51;;;;;;;43.83;21.27;;;;;;;16.75;87.84;102126.72;5072282;28;20051;-75
2022/10/17 06:38:21;;;;;;;49.08;22.23;;;;;;;16.75;88.08;102123.13;5071812;28;20487;-75
2022/10/17 06:40:52;;;;;;;43.08;21.77;;;;;;;16.85;87.71;102131.38;5072019;28;20052;-75
2022/10/17 06:43:21;;;;;;;43.47;21.42;;;;;;;17.02;87.58;102136.53;5071826;28;20064;-75
2022/10/17 06:46:15;;;;;;;51.97;23.58;;;;;;;17.08;86.32;102142.88;5072969;28;20040;-75
2022/10/17 06:48:53;;;;;;;48.42;22.42;;;;;;;17.09;87.57;102140.91;5072014;28;20041;-75
2022/10/17 06:51:56;;;;;;;53.78;23.52;;;;;;;17.16;87.44;102142.25;5030350;28;20088;-75
2022/10/17 06:54:37;;;;;;;41.70;22.00;;;;;;;17.21;86.36;102148.88;5063980;28;20056;-75
2022/10/17 06:57:26;;;;;;;45.88;22.55;;;;;;;17.28;86.34;102146.63;5071742;28;20052;-75
2022/10/17 07:00:22;;;;;;;51.38;22.10;;;;;;;17.31;86.22;102154.34;5070327;28;20518;-75
2022/10/17 07:02:53;;;;;;;49.05;22.52;;;;;;;17.44;85.79;102156.47;5071683;28;20051;-75
2022/10/17 07:05:21;;;;;;;49.05;23.05;;;;;;;17.46;85.10;102158.94;5073201;28;20095;-75
2022/10/17 07:07:49;;;;;;;51.60;22.17;;;;;;;17.52;85.36;102165.25;5072255;28;20056;-75
2022/10/17 07:10:18;;;;;;;47.38;22.23;;;;;;;17.67;84.90;102158.78;5071118;28;20422;-75
2022/10/17 07:12:46;;;;;;;48.40;22.35;;;;;;;17.78;84.50;102159.53;5054996;28;20392;-75
2022/10/17 07:15:14;;;;;;;52.63;24.77;;;;;;;17.89;83.71;102163.81;5043224;28;20059;-75
2022/10/17 07:17:42;;;;;;;51.28;22.67;;;;;;;18.05;84.08;102160.91;5071845;28;20052;-76
2022/10/17 07:20:11;;;;;;;44.80;22.65;;;;;;;18.13;82.04;102157.53;5071261;28;20487;-76
2022/10/17 07:22:39;;;;;;;49.58;22.98;;;;;;;18.23;81.49;102157.44;5063530;28;20407;-75
2022/10/17 07:25:08;;;;;;;47.17;22.08;;;;;;;18.34;81.90;102168.41;5070639;28;20052;-76
2022/10/17 07:27:42;;;;;;;44.55;21.75;;;;;;;18.41;81.27;102166.09;5070672;28;20041;-76
2022/10/17 07:30:11;;;;;;;54.55;23.55;;;;;;;18.50;80.30;102169.06;5071165;28;20390;-76
2022/10/17 07:32:46;;;;;;;48.38;22.63;;;;;;;18.78;79.06;102167.31;5060903;28;20056;-76
2022/10/17 07:35:14;;;;;;;44.95;22.63;;;;;;;18.90;79.72;102168.81;5067774;28;20056;-75
2022/10/17 07:37:42;;;;;;;55.53;23.92;;;;;;;19.00;78.11;102171.47;5072145;28;20048;-76
2022/10/17 07:40:10;;;;;;;45.78;21.52;;;;;;;19.41;76.97;102172.81;5070662;28;20053;-76
2022/10/17 07:42:38;;;;;;;46.90;23.20;;;;;;;19.61;75.87;102166.13;5070569;28;20395;-75
2022/10/17 07:45:12;;;;;;;49.42;23.92;;;;;;;19.88;74.39;102172.91;5072231;28;20040;-75
2022/10/17 07:47:42;;;;;;;42.35;22.65;;;;;;;19.98;73.72;102171.06;5070643;28;20372;-76
2022/10/17 07:50:16;;;;;;;43.38;22.17;;;;;;;20.01;72.77;102178.81;5070560;28;20045;-76
2022/10/17 07:52:44;;;;;;;42.50;21.58;;;;;;;20.20;73.04;102184.31;5072009;28;20044;-76
2022/10/17 07:55:12;;;;;;;47.47;22.75;;;;;;;20.34;72.70;102180.72;5071949;28;20407;-76
2022/10/17 07:57:40;;;;;;;42.92;21.80;;;;;;;20.05;73.29;102182.66;5071975;28;20055;-77
2022/10/17 08:00:08;;;;;;;48.15;23.08;;;;;;;19.87;73.67;102178.75;5072528;28;20052;-77
2022/10/17 08:02:39;;;;;;;47.40;23.25;;;;;;;20.06;73.32;102181.50;5070724;28;20047;-75
2022/10/17 08:05:07;;;;;;;50.70;23.27;;;;;;;19.88;74.01;102174.84;5072301;28;20053;-76
2022/10/17 08:07:35;;;;;;;50.33;23.45;;;;;;;20.20;74.39;102172.34;5072385;28;20064;-75
2022/10/17 08:10:03;;;;;;;42.22;22.27;;;;;;;20.22;73.73;102170.09;5071545;28;20063;-75
2022/10/17 08:12:33;;;;;;;43.53;22.85;;;;;;;20.43;72.72;102164.13;5071377;28;20051;-75
2022/10/17 08:15:01;;;;;;;48.20;23.95;;;;;;;20.79;72.53;102169.78;5072371;28;20056;-75
2022/10/17 08:17:28;;;;;;;44.13;22.40;;;;;;;20.87;71.06;102175.78;5071730;28;20434;-75
2022/10/17 08:19:56;;;;;;;48.10;23.40;;;;;;;21.13;71.15;102173.25;5071729;28;20411;-75
2022/10/17 08:22:25;;;;;;;43.70;22.08;;;;;;;20.95;71.73;102166.69;5071759;28;20036;-75
2022/10/17 08:24:53;;;;;;;39.40;21.67;;;;;;;20.89;72.22;102179.88;5069789;28;20696;-75
2022/10/17 08:27:23;;;;;;;41.10;20.10;;;;;;;21.19;71.24;102171.97;5071931;28;20060;-75
2022/10/17 08:29:52;;;;;;;43.08;23.05;;;;;;;21.43;70.71;102172.81;5071142;28;20063;-75
2022/10/17 08:32:22;;;;;;;54.42;23.20;;;;;;;21.13;71.60;102177.97;5071556;28;20052;-75
2022/10/17 08:34:50;;;;;;;50.83;23.67;;;;;;;21.17;71.46;102174.25;5071786;28;20083;-75
2022/10/17 08:37:18;;;;;;;52.08;24.75;;;;;;;21.51;70.41;102174.81;5071470;28;20045;-75
2022/10/17 08:39:47;;;;;;;50.25;24.00;;;;;;;21.70;68.52;102177.44;5071630;28;20395;-75
2022/10/17 08:42:42;;;;;;;46.58;24.67;;;;;;;22.23;67.55;102169.38;5071586;28;20032;-75
2022/10/17 08:45:16;;;;;;;42.85;21.85;;;;;;;21.88;68.08;102180.34;5070229;28;20502;-75
2022/10/17 08:47:51;;;;;;;45.90;23.10;;;;;;;21.53;69.16;102175.34;5071442;28;20057;-75
2022/10/17 08:50:39;;;;;;;45.95;23.67;;;;;;;21.60;70.27;102172.94;5071156;28;20061;-75
2022/10/17 08:53:32;;;;;;;52.88;24.27;;;;;;;21.88;68.20;102172.00;5057807;28;20063;-75
2022/10/17 08:56:12;;;;;;;48.83;24.00;;;;;;;22.21;67.55;102170.84;5071361;28;20052;-75
2022/10/17 08:58:52;;;;;;;50.05;23.42;;;;;;;22.57;66.46;102178.22;5071742;28;20047;-75
2022/10/17 09:01:31;;;;;;;53.45;24.83;;;;;;;22.59;67.00;102172.31;5071982;28;20052;-75
2022/10/17 09:04:20;;;;;;;48.83;23.10;;;;;;;22.71;65.51;102171.69;5070976;28;20056;-75
2022/10/17 09:07:23;;;;;;;54.20;26.60;;;;;;;22.62;66.55;102169.69;5071706;28;20044;-74
2022/10/17 09:10:14;;;;;;;53.45;25.90;;;;;;;22.19;68.61;102168.38;5071384;28;20065;-75
2022/10/17 09:12:51;;;;;;;50.47;24.77;;;;;;;22.48;67.24;102175.38;5071614;28;20086;-75
2022/10/17 09:15:55;;;;;;;51.83;26.30;;;;;;;22.75;66.40;102167.94;5071271;28;20045;-75
2022/10/17 09:18:46;;;;;;;53.35;24.63;;;;;;;22.94;65.25;102175.19;5071507;28;20048;-75
2022/10/17 09:21:29;;;;;;;54.67;26.00;;;;;;;22.88;67.11;102176.50;5071277;28;20403;-75
2022/10/17 09:24:02;;;;;;;56.65;27.30;;;;;;;22.80;66.85;102178.94;5071791;28;20048;-75
2022/10/17 09:26:39;;;;;;;59.33;27.23;;;;;;;22.99;65.75;102174.19;5074781;28;20045;-75
2022/10/17 09:29:26;;;;;;;48.38;26.13;;;;;;;23.21;65.35;102174.03;5074421;28;20067;-75
2022/10/17 09:32:10;;;;;;;50.40;25.60;;;;;;;23.39;64.04;102170.44;5074572;28;20059;-75
2022/10/17 09:34:40;;;;;;;49.60;24.80;;;;;;;22.95;65.91;102174.03;5074944;28;20048;-75
2022/10/17 09:37:14;;;;;;;52.33;26.35;;;;;;;23.38;63.73;102166.00;5074412;28;20057;-75
2022/10/17 09:39:43;;;;;;;50.58;27.33;;;;;;;23.66;63.37;102179.63;5074924;28;20055;-75
2022/10/17 09:42:20;;;;;;;52.33;25.50;;;;;;;23.70;62.90;102175.84;5074679;28;20041;-75
2022/10/17 09:45:03;;;;;;;48.20;25.75;;;;;;;23.73;62.43;102172.38;5074737;28;20056;-75
2022/10/17 09:47:45;;;;;;;56.63;27.00;;;;;;;23.85;61.46;102173.69;5074916;28;20059;-75
2022/10/17 09:50:33;;;;;;;50.72;23.90;;;;;;;23.86;61.93;102178.91;5074242;28;20057;-75
2022/10/17 09:53:09;;;;;;;48.33;24.27;;;;;;;24.17;61.63;102185.44;5074305;28;20056;-75
2022/10/17 09:55:42;;;;;;;47.70;24.50;;;;;;;24.21;61.26;102180.00;5074363;28;20047;-75
2022/10/17 09:58:10;;;;;;;47.33;24.90;;;;;;;24.77;60.95;102185.47;5074038;28;20510;-75
2022/10/17 10:00:43;;;;;;;45.63;23.38;;;;;;;24.67;59.50;102186.69;5075382;28;20052;-75
2022/10/17 10:03:11;;;;;;;41.47;22.40;;;;;;;24.35;60.29;102183.41;5074077;28;20049;-75
2022/10/17 10:05:40;;;;;;;49.33;24.40;;;;;;;24.18;60.76;102177.88;5073794;28;20484;-74
2022/10/17 10:08:16;;;;;;;46.92;23.92;;;;;;;24.50;59.73;102182.00;5072518;28;20044;-75
2022/10/17 10:10:44;;;;;;;44.90;22.38;;;;;;;24.21;61.53;102174.41;5072837;28;20479;-75
2022/10/17 10:13:12;;;;;;;42.22;22.85;;;;;;;24.10;60.60;102180.34;5072629;28;20051;-75
2022/10/17 10:15:45;;;;;;;40.58;21.95;;;;;;;24.11;61.21;102176.44;5072571;28;20499;-75
2022/10/17 10:18:25;;;;;;;44.53;22.43;;;;;;;24.55;60.19;102181.00;5055813;28;20059;-74
2022/10/17 10:21:08;;;;;;;237.77;33.15;;;;;;;24.73;60.41;102180.88;5073845;28;20045;-74
2022/10/17 10:23:44;;;;;;;46.47;24.02;;;;;;;24.81;59.18;102174.44;5072189;28;20052;-74
2022/10/17 10:26:24;;;;;;;40.33;21.40;;;;;;;25.15;58.05;102178.13;5073662;28;20495;-74
2022/10/17 10:28:53;;;;;;;45.63;23.63;;;;;;;25.25;59.84;102178.88;5073089;28;20044;-74
2022/10/17 10:31:38;;;;;;;40.35;21.45;;;;;;;25.02;58.57;102174.44;5073689;28;20060;-74
2022/10/17 10:34:23;;;;;;;38.92;21.15;;;;;;;25.40;56.94;102178.25;5073388;28;20352;-75
2022/10/17 10:37:01;;;;;;;38.25;20.67;;;;;;;25.40;56.62;102175.44;5061505;28;20052;-74
2022/10/17 10:39:41;;;;;;;39.53;22.23;;;;;;;25.53;56.98;102170.75;5072857;28;20055;-75
2022/10/17 10:42:34;;;;;;;43.40;21.58;;;;;;;25.76;56.33;102168.34;5061322;28;20049;-74
2022/10/17 10:45:14;;;;;;;42.28;22.70;;;;;;;25.67;56.75;102167.66;5050260;28;20057;-75
2022/10/17 10:48:26;;;;;;;39.55;21.48;;;;;;;25.72;56.13;102173.00;5071648;28;20053;-75
2022/10/17 10:51:08;;;;;;;42.15;20.63;;;;;;;25.47;56.24;102175.69;5066294;28;20052;-75
2022/10/17 10:53:54;;;;;;;45.17;23.23;;;;;;;25.35;57.51;102170.88;5073319;28;20044;-75
2022/10/17 10:56:28;;;;;;;43.58;22.08;;;;;;;25.19;57.27;102165.09;5072877;28;20406;-75
2022/10/17 10:59:08;;;;;;;41.70;21.40;;;;;;;25.47;56.82;102172.91;5073298;28;20048;-75
2022/10/17 11:01:54;;;;;;;41.33;22.17;;;;;;;25.26;58.21;102161.72;5073378;28;20491;-75
2022/10/17 11:04:36;;;;;;;40.00;20.52;;;;;;;25.53;56.33;102173.56;5058503;28;20060;-75
2022/10/17 11:07:27;;;;;;;40.03;21.35;;;;;;;25.53;55.29;102164.28;5073291;28;20052;-75
2022/10/17 11:10:26;;;;;;;35.88;20.08;;;;;;;25.87;55.48;102156.69;5072420;28;20537;-75
2022/10/17 11:13:03;;;;;;;37.55;20.73;;;;;;;26.09;54.67;102151.84;5072851;28;20068;-75
2022/10/17 11:15:31;;;;;;;42.88;21.98;;;;;;;25.80;56.16;102150.84;5072869;28;20071;-75
2022/10/17 11:18:09;;;;;;;46.88;22.33;;;;;;;25.58;56.41;102150.91;5072583;28;20048;-75
2022/10/17 11:20:47;;;;;;;45.08;23.40;;;;;;;25.13;57.52;102157.22;5054986;28;20044;-75
2022/10/17 11:23:20;;;;;;;43.35;22.05;;;;;;;25.30;56.97;102154.28;5072482;28;20040;-75
2022/10/17 11:25:51;;;;;;;40.75;21.15;;;;;;;25.80;55.83;102148.06;5063891;28;20060;-75
2022/10/17 11:28:22;;;;;;;39.53;20.50;;;;;;;26.06;54.03;102146.91;5068369;28;20060;-75
2022/10/17 11:30:59;;;;;;;39.08;20.38;;;;;;;26.22;52.31;102147.84;5071941;28;20052;-75
2022/10/17 11:33:39;;;;;;;40.15;20.13;;;;;;;26.34;52.12;102143.44;5072620;28;20044;-73
2022/10/17 11:36:12;;;;;;;39.40;20.63;;;;;;;26.80;51.25;102141.28;5072226;28;20063;-74
2022/10/17 11:38:59;;;;;;;40.65;20.45;;;;;;;26.40;50.92;102139.22;5071103;28;20395;-73
2022/10/17 11:41:36;;;;;;;40.90;20.10;;;;;;;26.10;53.34;102133.81;5071884;28;20487;-74
2022/10/17 11:44:34;;;;;;;44.60;23.20;;;;;;;26.51;52.82;102131.97;5070984;28;20064;-74
2022/10/17 11:47:10;;;;;;;37.80;20.10;;;;;;;26.82;51.04;102133.31;5071878;28;20391;-76